Sierra-at-tahoe, California
Current Conditions -  °F | °C
As of 6:53 PM on Wednesday 22 Oct 2014 (Local Time) from KTVL Reporting Station
Clear Clear  
Wind Chill: 54°   Ceiling: Unl
Heat Index: 54°   Visibility: 10mi
Dew Point: 29°   Wind: 6mph
Humidity: 38%   Direction: 210°SSW
Pressure: 30.16"   Gusts: NA
Location:  38.77°N, 120.16°W
Report Text: KTVL 230153Z AUTO 21005KT 10SM CLR 12/M02 A3016 RMK AO2 SLP192 T01221017
Loading
Personal Weather Stations






























Interactive Weather Map New forecast layout! Learn more

10-Day Weather Forecast

Advertisements
Track Severe Weather on mobile